Time;durP1;ratioP1;P1;durP2;ratioP2;P2;SDS_P1;SDS_P2;PMS_P1;PMS_P2;Temp;Humidity;BMP_temperature;BMP_pressure;BME280_temperature;BME280_humidity;BME280_pressure;Samples;Min_cycle;Max_cycle;Signal;HPM_P1;HPM_P2
2021/12/25 00:01:19;;;;;;;;;20.25;16.25;;;;;19.85;40.91;99834.72;5057946;28;45439;-49
2021/12/25 00:03:44;;;;;;;;;20.00;17.50;;;;;19.85;41.06;99834.72;5058162;28;45284;-46
2021/12/25 00:06:10;;;;;;;;;16.00;15.00;;;;;19.84;41.18;99833.91;5058200;28;45568;-48
2021/12/25 00:08:36;;;;;;;;;18.50;18.50;;;;;19.82;40.92;99835.78;5057469;28;46478;-53
2021/12/25 00:11:05;;;;;;;;;17.50;16.50;;;;;19.83;41.31;99834.00;5057360;28;45943;-53
2021/12/25 00:13:31;;;;;;;;;20.00;17.75;;;;;19.80;41.15;99829.78;5058140;28;45264;-49
2021/12/25 00:15:56;;;;;;;;;16.00;15.00;;;;;19.80;41.10;99824.53;5058064;28;45313;-46
2021/12/25 00:18:22;;;;;;;;;18.75;16.75;;;;;19.78;41.14;99819.38;5057948;28;46407;-51
2021/12/25 00:20:50;;;;;;;;;21.25;19.00;;;;;19.78;40.89;99819.38;5057471;28;46015;-52
2021/12/25 00:23:15;;;;;;;;;16.25;15.25;;;;;19.76;41.39;99808.13;5057658;28;45329;-53
2021/12/25 00:25:53;;;;;;;;;18.25;16.50;;;;;19.77;41.22;99815.06;5057828;28;45320;-54
2021/12/25 00:28:47;;;;;;;;;16.00;14.25;;;;;19.74;40.97;99810.00;5057535;28;45575;-45
2021/12/25 00:36:09;;;;;;;;;17.00;15.25;;;;;19.71;41.38;99789.19;5057532;28;45420;-49
2021/12/25 00:38:36;;;;;;;;;15.75;15.75;;;;;19.72;41.03;99788.25;5057262;28;47226;-47
2021/12/25 00:41:03;;;;;;;;;17.25;14.75;;;;;19.71;41.07;99788.34;5039281;28;45465;-52
2021/12/25 00:43:29;;;;;;;;;15.75;15.75;;;;;19.72;40.93;99790.03;5057366;28;45189;-54
2021/12/25 00:45:54;;;;;;;;;17.25;14.25;;;;;19.69;40.91;99767.41;5057857;28;45162;-54
2021/12/25 00:48:21;;;;;;;;;23.75;18.00;;;;;19.69;41.20;99771.84;5057103;28;45369;-53
2021/12/25 00:50:46;;;;;;;;;16.75;16.75;;;;;19.69;41.57;99777.09;5057183;28;45395;-53
2021/12/25 00:53:12;;;;;;;;;17.25;16.25;;;;;19.67;41.08;99779.00;5057226;28;45336;-48
2021/12/25 00:55:37;;;;;;;;;16.25;16.00;;;;;19.67;40.88;99787.72;5057527;28;45517;-48
2021/12/25 00:58:02;;;;;;;;;16.50;16.25;;;;;19.66;41.36;99793.94;5057069;28;45238;-47
2021/12/25 01:00:28;;;;;;;;;18.75;14.75;;;;;19.66;41.47;99791.31;5057248;28;45499;-43
2021/12/25 01:02:54;;;;;;;;;16.50;15.50;;;;;19.66;41.37;99793.06;5057101;28;45473;-48
2021/12/25 01:05:19;;;;;;;;;15.00;13.50;;;;;19.64;41.32;99787.94;5057375;28;45269;-53
2021/12/25 01:07:45;;;;;;;;;16.75;15.25;;;;;19.64;41.25;99790.56;5056410;28;46127;-50
2021/12/25 01:10:15;;;;;;;;;13.25;13.25;;;;;19.61;41.10;99789.00;5057021;28;45441;-49
2021/12/25 01:15:53;;;;;;;;;16.75;14.00;;;;;19.60;41.48;99795.19;5057699;28;45686;-54
2021/12/25 01:31:35;;;;;;;;;15.75;15.00;;;;;19.54;41.07;99806.09;5056730;28;45383;-51
2021/12/25 01:49:36;;;;;;;;;13.75;13.25;;;;;19.51;41.26;99806.34;5056153;28;45852;-51
2021/12/25 01:52:03;;;;;;;;;13.75;11.00;;;;;19.52;41.54;99808.00;5056353;28;45335;-52
2021/12/25 01:54:28;;;;;;;;;16.25;12.25;;;;;19.54;41.50;99803.47;5056617;28;45170;-54
2021/12/25 01:56:54;;;;;;;;;11.50;11.25;;;;;19.58;41.68;99804.09;5056588;28;45653;-55
2021/12/25 01:59:19;;;;;;;;;12.50;10.00;;;;;19.62;41.37;99802.97;5056235;28;46220;-52
2021/12/25 02:01:45;;;;;;;;;12.25;10.50;;;;;19.67;41.18;99803.50;5056037;28;45356;-54
2021/12/25 02:04:11;;;;;;;;;16.50;11.00;;;;;19.72;41.59;99805.81;5056312;28;45348;-55
2021/12/25 02:06:36;;;;;;;;;10.00;10.00;;;;;19.78;41.09;99806.25;5056518;28;45363;-51
2021/12/25 02:09:03;;;;;;;;;12.25;11.00;;;;;19.82;41.05;99809.50;5055843;28;46453;-47
2021/12/25 02:11:29;;;;;;;;;12.00;12.00;;;;;19.91;41.04;99815.91;5056495;28;45342;-53
2021/12/25 02:13:55;;;;;;;;;9.00;9.00;;;;;19.96;41.08;99821.72;5056139;28;45311;-55
2021/12/25 02:16:24;;;;;;;;;11.00;10.25;;;;;20.01;41.13;99824.03;5056137;28;45325;-48
2021/12/25 02:19:04;;;;;;;;;10.75;10.00;;;;;20.04;41.17;99814.13;5056186;28;47105;-54
2021/12/25 02:21:38;;;;;;;;;10.00;9.75;;;;;20.10;40.57;99809.41;5059810;28;45886;-53
2021/12/25 02:24:07;;;;;;;;;8.50;7.50;;;;;20.16;40.56;99808.97;5059530;28;45383;-48
2021/12/25 02:26:33;;;;;;;;;11.75;11.00;;;;;20.19;40.86;99811.38;5060020;28;45857;-53
2021/12/25 02:28:59;;;;;;;;;9.50;8.00;;;;;20.21;40.61;99822.66;5059683;28;45662;-53
2021/12/25 02:31:25;;;;;;;;;9.75;9.75;;;;;20.24;40.63;99811.88;5059308;28;45379;-54
2021/12/25 02:33:50;;;;;;;;;8.00;8.00;;;;;20.28;40.27;99816.00;5041451;28;45409;-51
2021/12/25 02:36:17;;;;;;;;;12.25;8.50;;;;;20.30;40.20;99813.25;5059500;28;45320;-56
2021/12/25 02:38:43;;;;;;;;;9.25;9.25;;;;;20.33;40.14;99811.25;5059226;28;45475;-51
2021/12/25 02:41:09;;;;;;;;;11.50;10.25;;;;;20.35;40.46;99806.72;5059100;28;45869;-52
2021/12/25 02:43:36;;;;;;;;;9.75;8.00;;;;;20.37;40.04;99815.34;5059288;28;45335;-55
2021/12/25 02:46:03;;;;;;;;;8.50;8.25;;;;;20.36;40.30;99797.88;5059811;28;45341;-55
2021/12/25 02:48:30;;;;;;;;;9.00;8.00;;;;;20.39;40.62;99813.44;5041427;28;48167;-54
2021/12/25 02:50:56;;;;;;;;;9.25;9.25;;;;;20.39;40.33;99802.94;5040879;28;45741;-55
2021/12/25 02:53:21;;;;;;;;;4.50;4.00;;;;;20.39;40.26;99808.19;5059044;28;45341;-54
2021/12/25 02:55:47;;;;;;;;;12.00;11.00;;;;;20.39;40.28;99802.09;5059114;28;45265;-55
2021/12/25 02:58:13;;;;;;;;;9.50;9.50;;;;;20.41;40.31;99800.16;5058920;28;45404;-56
2021/12/25 03:00:49;;;;;;;;;10.00;8.25;;;;;20.41;40.43;99794.06;5059094;28;45424;-52
2021/12/25 03:03:15;;;;;;;;;9.25;8.00;;;;;20.39;40.18;99802.09;5058986;28;45317;-52
2021/12/25 03:05:40;;;;;;;;;10.00;8.50;;;;;20.41;40.04;99801.97;5059131;28;45569;-46
2021/12/25 03:08:07;;;;;;;;;8.00;8.00;;;;;20.40;40.44;99803.75;5058672;28;45391;-51
2021/12/25 03:10:35;;;;;;;;;11.00;9.25;;;;;20.41;40.31;99808.06;5059004;28;45844;-52
2021/12/25 03:15:46;;;;;;;;;10.50;9.00;;;;;20.38;40.53;99806.50;5059393;28;45525;-52
2021/12/25 03:18:35;;;;;;;;;9.50;8.75;;;;;20.38;40.44;99809.13;5058569;28;46162;-50
2021/12/25 03:21:05;;;;;;;;;11.75;7.75;;;;;20.37;40.17;99804.81;5059082;28;45768;-47
2021/12/25 03:23:33;;;;;;;;;6.00;6.00;;;;;20.37;40.17;99804.00;5059125;28;45833;-52
2021/12/25 03:26:01;;;;;;;;;9.25;8.25;;;;;20.34;39.86;99799.75;5058911;28;45249;-49
2021/12/25 03:28:30;;;;;;;;;7.75;7.00;;;;;20.34;40.08;99807.66;5058448;28;46640;-50
2021/12/25 03:30:59;;;;;;;;;8.25;7.50;;;;;20.33;39.88;99802.50;5058390;28;45736;-50
2021/12/25 03:33:26;;;;;;;;;7.75;7.75;;;;;20.31;40.17;99794.75;5040585;28;45384;-49
2021/12/25 03:35:51;;;;;;;;;7.00;6.00;;;;;20.31;40.07;99804.41;5058826;28;45260;-46
2021/12/25 03:38:19;;;;;;;;;7.00;5.50;;;;;20.30;40.40;99806.22;5058362;28;46447;-46
2021/12/25 03:40:46;;;;;;;;;7.50;6.00;;;;;20.30;40.33;99813.25;5057729;28;45225;-54
2021/12/25 03:43:11;;;;;;;;;6.25;6.25;;;;;20.27;40.21;99811.69;5058646;28;45788;-54
2021/12/25 03:45:37;;;;;;;;;5.75;5.75;;;;;20.27;40.74;99819.56;5058699;28;45748;-44
2021/12/25 03:48:12;;;;;;;;;8.50;7.25;;;;;20.23;40.50;99810.22;5040383;28;47097;-54
2021/12/25 03:58:52;;;;;;;;;9.75;6.25;;;;;20.20;40.26;99819.16;5058017;28;45773;-54
2021/12/25 04:04:03;;;;;;;;;7.00;5.75;;;;;20.17;40.12;99818.53;5058123;28;45189;-53
2021/12/25 04:06:29;;;;;;;;;7.00;7.00;;;;;20.15;40.70;99817.81;5058144;28;45471;-52
2021/12/25 04:08:56;;;;;;;;;5.50;5.50;;;;;20.16;40.60;99827.38;5057558;28;46070;-53
2021/12/25 04:11:30;;;;;;;;;5.00;4.75;;;;;20.15;40.41;99833.59;5057896;28;45463;-48
2021/12/25 04:13:56;;;;;;;;;9.50;8.00;;;;;20.12;40.50;99832.03;5041255;28;45403;-47
2021/12/25 04:16:22;;;;;;;;;6.75;6.75;;;;;20.13;40.66;99832.84;5057934;28;45474;-55
2021/12/25 04:18:48;;;;;;;;;5.75;5.75;;;;;20.12;40.50;99832.03;5057683;28;46339;-54
2021/12/25 04:21:14;;;;;;;;;7.25;7.00;;;;;20.11;40.63;99822.44;5057587;28;45231;-55
2021/12/25 04:23:42;;;;;;;;;6.50;6.50;;;;;20.08;40.32;99820.00;5039580;28;45435;-51
2021/12/25 04:26:08;;;;;;;;;5.00;5.00;;;;;20.08;40.73;99820.00;5058195;28;45328;-52
2021/12/25 05:04:12;;;;;;;;;5.00;5.00;;;;;19.88;40.91;99813.53;5057444;28;45416;-48
2021/12/25 05:06:37;;;;;;;;;4.25;4.25;;;;;19.90;41.05;99825.63;5057283;28;45466;-45
2021/12/25 05:09:03;;;;;;;;;5.00;5.00;;;;;19.90;41.24;99827.38;5057180;28;45399;-45
2021/12/25 05:11:28;;;;;;;;;5.00;5.00;;;;;19.87;41.04;99823.19;5056729;28;45444;-48
2021/12/25 05:13:54;;;;;;;;;7.00;6.00;;;;;19.86;41.23;99825.94;5056852;28;45182;-46
2021/12/25 05:16:21;;;;;;;;;7.25;7.00;;;;;19.86;41.14;99825.94;5057050;28;45381;-46
2021/12/25 05:18:46;;;;;;;;;5.00;5.00;;;;;19.85;41.12;99829.47;5057003;28;45214;-48
2021/12/25 05:21:15;;;;;;;;;8.25;7.00;;;;;19.85;41.30;99826.84;5056676;28;46307;-45
2021/12/25 05:23:41;;;;;;;;;6.25;5.00;;;;;19.83;40.80;99826.97;5056844;28;45766;-48
2021/12/25 05:26:07;;;;;;;;;10.25;6.00;;;;;19.83;40.78;99831.38;5057153;28;45824;-46
2021/12/25 05:28:41;;;;;;;;;5.50;5.50;;;;;19.82;41.34;99827.91;5057071;28;45570;-49
2021/12/25 05:31:09;;;;;;;;;5.25;4.25;;;;;19.81;41.12;99834.09;5057013;28;46557;-48
2021/12/25 05:33:36;;;;;;;;;5.00;5.00;;;;;19.80;41.26;99829.78;5038763;28;45281;-51
2021/12/25 05:36:02;;;;;;;;;7.00;6.00;;;;;19.78;41.56;99832.53;5056650;28;45218;-51
2021/12/25 05:38:27;;;;;;;;;5.25;5.00;;;;;19.77;41.43;99830.84;5056721;28;45609;-53
2021/12/25 05:40:53;;;;;;;;;8.00;7.00;;;;;19.79;41.64;99830.72;5056480;28;45507;-46
2021/12/25 05:43:19;;;;;;;;;7.25;7.25;;;;;19.82;41.48;99835.78;5056460;28;45433;-50
2021/12/25 05:45:45;;;;;;;;;5.25;5.25;;;;;19.86;41.48;99833.81;5056447;28;45344;-49
2021/12/25 05:48:11;;;;;;;;;1.00;1.00;;;;;19.89;41.14;99842.34;5056984;28;45319;-50
2021/12/25 05:50:37;;;;;;;;;5.50;5.50;;;;;19.96;40.98;99836.63;5056262;28;45414;-51
2021/12/25 05:53:04;;;;;;;;;4.50;4.50;;;;;20.00;41.22;99836.34;5055842;28;45544;-46
2021/12/25 05:55:29;;;;;;;;;4.75;4.75;;;;;20.06;40.96;99833.28;5055777;28;45257;-54
2021/12/25 05:57:55;;;;;;;;;5.50;5.50;;;;;20.10;41.05;99833.91;5056602;28;45297;-52
2021/12/25 06:00:21;;;;;;;;;4.25;4.25;;;;;20.16;41.08;99835.28;5056180;28;45348;-53
2021/12/25 06:02:47;;;;;;;;;5.75;4.75;;;;;20.20;40.81;99839.38;5056217;28;45269;-52
2021/12/25 06:05:13;;;;;;;;;7.50;7.25;;;;;20.24;40.69;99836.44;5056706;28;45189;-51
2021/12/25 06:07:39;;;;;;;;;1.00;0.00;;;;;20.28;40.49;99837.06;5056731;28;45567;-49
2021/12/25 06:10:10;;;;;;;;;8.00;6.00;;;;;20.33;40.74;99834.94;5056204;28;45324;-54
2021/12/25 06:12:40;;;;;;;;;8.50;5.75;;;;;20.37;40.63;99831.13;5056155;28;45414;-51
2021/12/25 06:15:08;;;;;;;;;6.25;6.25;;;;;20.42;41.02;99838.69;5038279;28;45446;-52
2021/12/25 06:17:33;;;;;;;;;8.00;7.00;;;;;20.44;40.41;99835.97;5056328;28;45334;-49
2021/12/25 06:19:58;;;;;;;;;8.50;7.50;;;;;20.48;40.72;99840.06;5037942;28;47252;-52
2021/12/25 06:22:24;;;;;;;;;5.00;5.00;;;;;20.49;40.56;99836.47;5055894;28;45233;-49
2021/12/25 06:24:49;;;;;;;;;4.25;4.00;;;;;20.51;40.44;99842.47;5056235;28;45304;-49
2021/12/25 06:27:18;;;;;;;;;6.50;6.50;;;;;20.51;40.85;99843.31;5056474;28;45522;-49
2021/12/25 06:29:43;;;;;;;;;5.25;5.00;;;;;20.52;40.54;99845.00;5056211;28;45508;-49
2021/12/25 06:32:09;;;;;;;;;5.50;5.50;;;;;20.54;40.84;99855.44;5055845;28;45445;-45
2021/12/25 06:34:35;;;;;;;;;8.00;5.75;;;;;20.54;40.23;99850.16;5056009;28;45434;-52
2021/12/25 06:37:01;;;;;;;;;8.00;6.75;;;;;20.55;40.69;99854.50;5056328;28;45320;-51
2021/12/25 06:39:27;;;;;;;;;8.00;7.75;;;;;20.57;40.56;99862.25;5055709;28;45328;-53
2021/12/25 06:41:52;;;;;;;;;9.50;9.00;;;;;20.57;40.23;99860.47;5055622;28;45742;-55
2021/12/25 06:44:20;;;;;;;;;9.50;9.00;;;;;20.57;40.82;99865.72;5055790;28;45352;-50
2021/12/25 06:46:46;;;;;;;;;12.00;9.75;;;;;20.53;40.62;99857.22;5056350;28;45170;-53
2021/12/25 06:49:11;;;;;;;;;13.00;10.25;;;;;20.51;40.69;99860.91;5037940;28;48285;-55
2021/12/25 06:51:36;;;;;;;;;11.75;10.00;;;;;20.46;41.02;99857.75;5055737;28;45285;-56
2021/12/25 06:54:03;;;;;;;;;11.25;11.25;;;;;20.42;41.13;99859.75;5037813;28;45240;-54
2021/12/25 06:56:29;;;;;;;;;11.75;10.75;;;;;20.38;40.90;99859.13;5055778;28;45447;-51
2021/12/25 06:58:55;;;;;;;;;15.25;14.50;;;;;20.36;41.21;99857.56;5037361;28;47268;-54
2021/12/25 07:01:20;;;;;;;;;10.75;9.00;;;;;20.32;40.94;99856.94;5055566;28;45289;-54
2021/12/25 07:03:46;;;;;;;;;11.50;10.75;;;;;20.29;41.58;99854.53;5055914;28;45827;-54
2021/12/25 07:06:11;;;;;;;;;15.50;11.00;;;;;20.28;41.15;99857.28;5058072;28;45314;-53
2021/12/25 07:08:37;;;;;;;;;11.75;11.75;;;;;20.24;41.66;99854.84;5058620;28;45522;-55
2021/12/25 07:11:02;;;;;;;;;11.00;11.00;;;;;20.23;41.37;99868.09;5058740;28;45284;-54
2021/12/25 07:13:28;;;;;;;;;11.00;10.25;;;;;20.22;41.39;99864.63;5058945;28;45391;-55
2021/12/25 07:15:53;;;;;;;;;12.00;11.25;;;;;20.20;41.75;99863.88;5058976;28;45402;-53
2021/12/25 07:18:18;;;;;;;;;12.25;10.00;;;;;20.17;41.72;99858.88;5058649;28;45271;-54
2021/12/25 07:20:45;;;;;;;;;9.50;8.50;;;;;20.17;41.25;99863.25;5040761;28;46269;-55
2021/12/25 07:23:11;;;;;;;;;11.75;11.25;;;;;20.15;41.58;99862.53;5058628;28;45280;-53
2021/12/25 07:25:37;;;;;;;;;9.75;9.75;;;;;20.13;41.47;99864.41;5058830;28;45317;-53
2021/12/25 07:28:02;;;;;;;;;10.75;9.75;;;;;20.13;41.64;99865.28;5058448;28;46409;-54
2021/12/25 07:30:28;;;;;;;;;10.25;8.50;;;;;20.10;41.55;99864.66;5040575;28;45995;-55
2021/12/25 07:32:53;;;;;;;;;9.25;7.00;;;;;20.09;41.74;99869.06;5058717;28;45461;-54
2021/12/25 07:35:19;;;;;;;;;12.50;10.00;;;;;20.08;42.02;99865.59;5058803;28;45507;-53
2021/12/25 07:37:45;;;;;;;;;9.00;9.00;;;;;20.06;42.04;99864.03;5058567;28;45301;-54
2021/12/25 07:40:11;;;;;;;;;11.25;9.25;;;;;20.04;41.47;99864.09;5058447;28;45277;-54
2021/12/25 07:42:36;;;;;;;;;8.00;8.00;;;;;20.02;42.26;99862.53;5058299;28;45539;-54
2021/12/25 07:45:06;;;;;;;;;12.50;9.25;;;;;20.00;42.07;99865.28;5058612;28;45460;-54
2021/12/25 07:47:34;;;;;;;;;10.00;8.50;;;;;19.98;42.22;99866.31;5040520;28;46438;-57
2021/12/25 07:49:59;;;;;;;;;10.00;8.75;;;;;19.96;41.80;99862.94;5058203;28;46037;-58
2021/12/25 07:52:30;;;;;;;;;10.00;9.00;;;;;19.95;42.36;99867.38;5058124;28;45372;-53
2021/12/25 07:54:55;;;;;;;;;9.00;8.75;;;;;19.94;42.29;99865.69;5058261;28;45186;-57
2021/12/25 07:57:20;;;;;;;;;8.25;6.75;;;;;19.91;42.04;99872.00;5058121;28;46472;-55
2021/12/25 07:59:46;;;;;;;;;5.00;5.00;;;;;19.89;42.10;99875.69;5058512;28;45383;-54
2021/12/25 08:02:12;;;;;;;;;8.25;7.00;;;;;19.87;42.60;99874.94;5056768;28;45300;-55
2021/12/25 08:04:37;;;;;;;;;11.75;10.25;;;;;19.84;42.13;99875.97;5058269;28;45236;-54
2021/12/25 08:07:03;;;;;;;;;9.75;8.50;;;;;19.84;42.26;99883.00;5057609;28;46422;-57
2021/12/25 08:09:30;;;;;;;;;8.00;8.00;;;;;19.82;42.12;99880.50;5039779;28;46169;-53
2021/12/25 08:11:57;;;;;;;;;10.25;9.50;;;;;19.83;42.55;99886.56;5057940;28;45486;-53
2021/12/25 08:14:25;;;;;;;;;13.25;11.75;;;;;19.81;42.54;99886.69;5058165;28;45308;-50
2021/12/25 08:16:52;;;;;;;;;12.25;9.25;;;;;19.80;42.33;99886.78;5056729;28;45386;-55
2021/12/25 08:19:17;;;;;;;;;10.00;9.00;;;;;19.74;42.76;99883.63;5058030;28;45355;-55
2021/12/25 08:21:43;;;;;;;;;8.50;7.00;;;;;19.75;42.07;99887.09;5057900;28;45261;-53
2021/12/25 08:24:08;;;;;;;;;12.25;9.00;;;;;19.72;42.64;99882.06;5039846;28;45264;-53
2021/12/25 08:26:33;;;;;;;;;11.50;10.00;;;;;19.73;42.76;99883.75;5057541;28;45251;-53
2021/12/25 08:28:59;;;;;;;;;12.50;11.00;;;;;19.71;42.39;99885.63;5057514;28;45385;-55
2021/12/25 08:31:24;;;;;;;;;6.75;6.75;;;;;19.69;42.49;99887.50;5057735;28;45377;-53
2021/12/25 08:33:49;;;;;;;;;13.00;9.75;;;;;19.68;42.45;99886.66;5058166;28;45674;-54
2021/12/25 08:36:15;;;;;;;;;13.50;12.25;;;;;19.65;42.95;99881.63;5057396;28;46271;-53
2021/12/25 08:38:41;;;;;;;;;10.50;9.50;;;;;19.64;42.87;99885.19;5057302;28;45950;-53
2021/12/25 08:41:06;;;;;;;;;9.50;8.50;;;;;19.64;42.88;99885.19;5057539;28;46222;-55
2021/12/25 08:43:35;;;;;;;;;10.50;10.00;;;;;19.65;42.95;99886.03;5057540;28;45540;-54
2021/12/25 08:46:03;;;;;;;;;8.75;8.75;;;;;19.62;42.97;99884.44;5039640;28;46515;-54
2021/12/25 08:48:30;;;;;;;;;9.25;9.25;;;;;19.63;43.02;99894.84;5057126;28;45910;-52
2021/12/25 08:50:58;;;;;;;;;9.50;8.25;;;;;19.61;43.04;99893.28;5056597;28;45357;-55
2021/12/25 08:53:25;;;;;;;;;0.00;0.00;;;;;19.62;42.50;99897.59;5057553;28;45572;-55
2021/12/25 08:55:54;;;;;;;;;11.50;9.50;;;;;19.63;42.98;99899.28;5057209;28;46694;-51
2021/12/25 08:58:19;;;;;;;;;9.50;8.00;;;;;19.60;42.89;99902.09;5057233;28;45323;-55
2021/12/25 09:00:47;;;;;;;;;10.50;10.50;;;;;19.59;42.78;99897.78;5057213;28;45257;-55
2021/12/25 09:03:12;;;;;;;;;8.25;6.50;;;;;19.58;42.72;99901.34;5057266;28;45308;-55
2021/12/25 09:05:38;;;;;;;;;13.00;10.00;;;;;19.57;42.63;99904.91;5056866;28;46622;-54
2021/12/25 09:08:05;;;;;;;;;9.00;8.00;;;;;19.56;42.76;99901.47;5056707;28;45349;-53
2021/12/25 09:10:30;;;;;;;;;12.00;10.25;;;;;19.55;42.70;99898.94;5056975;28;45312;-53
2021/12/25 09:12:57;;;;;;;;;7.00;7.00;;;;;19.54;42.44;99900.72;5057200;28;46010;-55
2021/12/25 09:15:23;;;;;;;;;13.25;10.25;;;;;19.55;42.98;99902.41;5057036;28;46420;-53
2021/12/25 09:17:49;;;;;;;;;10.75;8.25;;;;;19.53;42.97;99898.22;5057137;28;45346;-54
2021/12/25 09:20:19;;;;;;;;;11.00;9.75;;;;;19.51;42.59;99906.19;5056909;28;45353;-53
2021/12/25 09:22:45;;;;;;;;;9.50;9.50;;;;;19.50;42.67;99909.78;5056903;28;45277;-54
2021/12/25 09:25:11;;;;;;;;;10.25;9.00;;;;;19.52;42.80;99922.81;5056634;28;45407;-54
2021/12/25 09:27:36;;;;;;;;;9.50;8.50;;;;;19.50;42.80;99909.78;5056379;28;45268;-53
2021/12/25 09:30:03;;;;;;;;;9.50;9.50;;;;;19.50;43.14;99919.44;5056843;28;45315;-54
2021/12/25 09:32:28;;;;;;;;;11.75;10.00;;;;;19.47;43.18;99910.78;5056872;28;45292;-54
2021/12/25 09:34:53;;;;;;;;;8.25;8.25;;;;;19.49;43.40;99917.72;5056657;28;45439;-53
2021/12/25 09:37:20;;;;;;;;;11.00;9.25;;;;;19.49;43.21;99923.00;5038514;28;45439;-51
2021/12/25 09:39:45;;;;;;;;;10.00;9.00;;;;;19.52;42.95;99930.69;5056742;28;45339;-54
2021/12/25 09:42:11;;;;;;;;;12.50;10.50;;;;;19.51;42.96;99926.38;5056658;28;45446;-55
2021/12/25 09:44:37;;;;;;;;;7.00;6.50;;;;;19.50;42.75;99925.53;5056337;28;45331;-54
2021/12/25 09:47:04;;;;;;;;;10.00;10.00;;;;;19.50;43.24;99919.44;5056412;28;45418;-54
2021/12/25 09:49:29;;;;;;;;;9.25;8.00;;;;;19.50;43.26;99927.31;5056345;28;45253;-54
2021/12/25 09:51:55;;;;;;;;;10.00;8.50;;;;;19.50;42.89;99929.94;5056947;28;45797;-54
2021/12/25 09:54:20;;;;;;;;;9.00;7.25;;;;;19.50;42.97;99929.94;5056576;28;46260;-53
2021/12/25 09:56:48;;;;;;;;;8.50;6.75;;;;;19.50;43.06;99930.78;5056385;28;45218;-54
2021/12/25 09:59:14;;;;;;;;;10.50;7.50;;;;;19.50;42.68;99924.69;5056443;28;45233;-54
2021/12/25 10:01:41;;;;;;;;;11.00;11.00;;;;;19.51;43.21;99921.09;5056369;28;45469;-54
2021/12/25 10:04:09;;;;;;;;;7.50;6.75;;;;;19.51;42.83;99927.22;5056029;28;45740;-54
2021/12/25 10:06:38;;;;;;;;;12.50;9.25;;;;;19.52;42.52;99928.06;5056298;28;45422;-54
2021/12/25 10:09:24;;;;;;;;;7.00;7.00;;;;;19.51;42.71;99929.84;5056028;28;45403;-54
2021/12/25 10:12:02;;;;;;;;;8.50;8.00;;;;;19.52;42.95;99922.81;5055679;28;45446;-54
2021/12/25 10:14:27;;;;;;;;;12.00;8.50;;;;;19.52;42.72;99933.31;5055488;28;46378;-55
2021/12/25 10:16:53;;;;;;;;;7.25;7.25;;;;;19.52;42.51;99925.44;5056401;28;45363;-55
2021/12/25 10:19:22;;;;;;;;;9.75;7.00;;;;;19.51;42.94;99921.97;5056187;28;45387;-52
2021/12/25 10:22:03;;;;;;;;;9.25;7.25;;;;;19.51;42.73;99915.84;5056324;28;45218;-55
2021/12/25 10:24:29;;;;;;;;;7.00;7.00;;;;;19.51;42.53;99905.34;5055798;28;47375;-47
2021/12/25 10:27:10;;;;;;;;;6.75;6.75;;;;;19.51;42.83;99907.97;5056171;28;45360;-46
2021/12/25 10:29:35;;;;;;;;;9.50;8.00;;;;;19.50;42.37;99907.16;5056267;28;45362;-51
2021/12/25 10:32:17;;;;;;;;;9.75;6.75;;;;;19.51;42.39;99907.97;5056159;28;45379;-53
2021/12/25 10:34:43;;;;;;;;;5.50;5.50;;;;;19.50;42.40;99903.66;5055830;28;46266;-55
2021/12/25 10:37:12;;;;;;;;;8.25;6.00;;;;;19.50;42.74;99906.28;5055827;28;45373;-54
2021/12/25 10:39:38;;;;;;;;;6.50;6.00;;;;;19.50;42.48;99908.91;5055962;28;45347;-53
2021/12/25 10:42:16;;;;;;;;;9.50;8.50;;;;;19.49;42.34;99905.47;5059624;28;45348;-53
2021/12/25 10:44:46;;;;;;;;;7.00;7.00;;;;;19.49;42.41;99909.84;5059307;28;45412;-54
2021/12/25 10:47:12;;;;;;;;;5.00;5.00;;;;;19.49;42.63;99912.47;5059185;28;45394;-51
2021/12/25 10:49:51;;;;;;;;;7.67;6.00;;;;;19.46;42.76;99909.09;5059425;28;45427;-53
2021/12/25 10:52:30;;;;;;;;;6.00;6.00;;;;;19.47;42.15;99905.53;5059505;28;45331;-48
2021/12/25 10:55:03;;;;;;;;;6.75;5.00;;;;;19.46;42.32;99909.09;5059337;28;46525;-56
2021/12/25 10:57:34;;;;;;;;;6.00;6.00;;;;;19.46;42.28;99903.84;5059145;28;45761;-47
2021/12/25 11:00:02;;;;;;;;;7.00;7.00;;;;;19.46;42.22;99903.03;5059275;28;45300;-52
2021/12/25 11:02:36;;;;;;;;;8.00;6.50;;;;;19.45;42.30;99896.06;5059508;28;45634;-54
2021/12/25 11:05:15;;;;;;;;;7.75;6.75;;;;;19.43;42.19;99887.44;5058742;28;47098;-53
2021/12/25 11:07:41;;;;;;;;;7.00;7.00;;;;;19.44;42.20;99887.38;5058793;28;45506;-54
2021/12/25 11:10:12;;;;;;;;;5.75;5.75;;;;;19.44;42.21;99887.38;5057674;28;45401;-48
2021/12/25 11:12:38;;;;;;;;;6.00;6.00;;;;;19.44;42.25;99881.25;5041021;28;45586;-46
2021/12/25 11:15:17;;;;;;;;;5.25;5.25;;;;;19.43;42.32;99872.53;5058796;28;45958;-53
2021/12/25 11:17:49;;;;;;;;;6.50;5.25;;;;;19.43;42.09;99872.53;5058601;28;45818;-51
2021/12/25 11:20:22;;;;;;;;;7.75;7.00;;;;;19.43;42.37;99877.78;5058745;28;45480;-52
2021/12/25 11:22:53;;;;;;;;;5.50;5.50;;;;;19.42;42.35;99873.47;5058750;28;45311;-54
2021/12/25 11:25:21;;;;;;;;;5.25;5.25;;;;;19.43;42.42;99871.69;5058493;28;45436;-53
2021/12/25 11:27:49;;;;;;;;;3.25;3.25;;;;;19.41;42.17;99871.78;5058757;28;45218;-51
2021/12/25 11:30:15;;;;;;;;;5.25;5.25;;;;;19.41;42.38;99873.56;5058646;28;45455;-52
2021/12/25 11:32:41;;;;;;;;;5.00;5.00;;;;;19.41;42.23;99870.94;5058881;28;45331;-50
2021/12/25 11:35:08;;;;;;;;;5.25;5.25;;;;;19.38;42.42;99864.09;5058484;28;46171;-48
2021/12/25 11:37:35;;;;;;;;;7.00;5.75;;;;;19.39;41.98;99857.06;5058510;28;45479;-48
2021/12/25 11:40:00;;;;;;;;;5.00;5.00;;;;;19.40;42.32;99864.03;5058944;28;45366;-49
2021/12/25 11:42:27;;;;;;;;;6.00;6.00;;;;;19.39;42.34;99855.28;5058743;28;45302;-54
2021/12/25 11:44:54;;;;;;;;;7.75;7.50;;;;;19.40;41.92;99856.97;5058266;28;46278;-51
2021/12/25 11:47:39;;;;;;;;;6.50;5.75;;;;;19.39;41.95;99855.28;5040181;28;45552;-54
2021/12/25 11:50:10;;;;;;;;;5.00;5.00;;;;;19.37;41.86;99851.91;5058475;28;45447;-55
2021/12/25 11:52:44;;;;;;;;;9.25;7.00;;;;;19.39;42.14;99851.81;5040533;28;45402;-53
2021/12/25 11:55:28;;;;;;;;;7.00;7.00;;;;;19.38;41.89;99848.34;5058009;28;45672;-53
2021/12/25 12:00:51;;;;;;;;;6.25;5.50;;;;;19.38;41.85;99853.59;5040410;28;45732;-51
2021/12/25 12:03:42;;;;;;;;;8.00;5.00;;;;;19.37;42.29;99848.44;5046211;28;45309;-49
2021/12/25 12:06:08;;;;;;;;;8.50;6.00;;;;;19.35;42.07;99843.28;5057829;28;46204;-54
2021/12/25 12:08:53;;;;;;;;;5.50;5.25;;;;;19.36;42.18;99844.97;5057768;28;45881;-55
2021/12/25 12:11:24;;;;;;;;;5.00;4.75;;;;;19.36;42.34;99850.22;5026700;28;45336;-54
2021/12/25 12:14:19;;;;;;;;;6.00;4.50;;;;;19.36;41.65;99852.84;5058236;28;45391;-48
2021/12/25 12:16:57;;;;;;;;;6.25;6.25;;;;;19.36;41.96;99849.38;5057769;28;46456;-55
2021/12/25 12:19:38;;;;;;;;;9.00;7.00;;;;;19.35;42.35;99847.69;5057858;28;45754;-51
2021/12/25 12:22:24;;;;;;;;;8.00;7.25;;;;;19.37;42.05;99849.28;5057792;28;45293;-52
2021/12/25 12:25:21;;;;;;;;;11.00;9.00;;;;;19.43;42.22;99853.28;5058173;28;45434;-54
2021/12/25 12:27:55;;;;;;;;;4.25;4.25;;;;;19.47;41.99;99847.72;5057568;28;46530;-53
2021/12/25 12:30:43;;;;;;;;;10.50;7.50;;;;;19.54;42.09;99852.59;5057866;28;45277;-54
2021/12/25 12:33:11;;;;;;;;;8.50;8.50;;;;;19.59;42.03;99851.34;5058154;28;45797;-51
2021/12/25 12:35:39;;;;;;;;;10.00;9.00;;;;;19.64;42.05;99843.13;5058064;28;45382;-52
2021/12/25 12:41:14;;;;;;;;;8.00;8.00;;;;;19.76;41.78;99837.06;5057903;28;45414;-54
2021/12/25 12:44:13;;;;;;;;;9.25;7.75;;;;;19.82;41.50;99830.53;5057724;28;45298;-52
2021/12/25 12:46:51;;;;;;;;;9.00;8.50;;;;;19.86;41.75;99832.03;5057891;28;45304;-53
2021/12/25 12:49:39;;;;;;;;;6.50;6.50;;;;;19.91;41.74;99832.56;5057284;28;45329;-51
2021/12/25 12:52:26;;;;;;;;;7.75;7.75;;;;;19.97;41.04;99836.56;5057546;28;45703;-50
2021/12/25 12:55:00;;;;;;;;;6.25;6.25;;;;;20.00;41.14;99838.13;5057387;28;45328;-49
2021/12/25 12:57:31;;;;;;;;;7.00;6.25;;;;;20.04;41.55;99840.44;5057433;28;45253;-47
2021/12/25 13:00:20;;;;;;;;;8.00;7.75;;;;;20.06;40.96;99838.53;5022477;28;47209;-49
2021/12/25 13:02:51;;;;;;;;;8.00;5.25;;;;;20.08;40.96;99834.03;5048212;28;45819;-47
2021/12/25 13:05:23;;;;;;;;;8.00;6.75;;;;;20.11;41.18;99832.13;5057199;28;45285;-44
2021/12/25 13:07:50;;;;;;;;;7.50;7.00;;;;;20.14;40.99;99834.53;5056999;28;45481;-46